sensor_id;sensor_type;location;lat;lon;timestamp;temperature;humidity
23283;DHT22;11810;51.178;3.878;2022-08-25T00:01:29;22.10;99.90
23283;DHT22;11810;51.178;3.878;2022-08-25T00:03:57;22.10;99.90
23283;DHT22;11810;51.178;3.878;2022-08-25T00:06:24;22.10;99.90
23283;DHT22;11810;51.178;3.878;2022-08-25T00:08:51;21.90;99.90
23283;DHT22;11810;51.178;3.878;2022-08-25T00:11:20;21.90;99.90
23283;DHT22;11810;51.178;3.878;2022-08-25T00:13:55;21.80;99.90
23283;DHT22;11810;51.178;3.878;2022-08-25T00:16:23;21.80;99.90
23283;DHT22;11810;51.178;3.878;2022-08-25T00:18:54;21.70;99.90
23283;DHT22;11810;51.178;3.878;2022-08-25T00:21:22;21.60;99.90
23283;DHT22;11810;51.178;3.878;2022-08-25T00:23:49;21.50;99.90
23283;DHT22;11810;51.178;3.878;2022-08-25T00:26:16;21.60;99.90
23283;DHT22;11810;51.178;3.878;2022-08-25T00:28:42;21.50;99.90
23283;DHT22;11810;51.178;3.878;2022-08-25T00:31:15;21.50;99.90
23283;DHT22;11810;51.178;3.878;2022-08-25T00:33:42;21.50;99.90
23283;DHT22;11810;51.178;3.878;2022-08-25T00:36:09;21.50;99.90
23283;DHT22;11810;51.178;3.878;2022-08-25T00:38:38;21.50;99.90
23283;DHT22;11810;51.178;3.878;2022-08-25T00:41:05;21.40;99.90
23283;DHT22;11810;51.178;3.878;2022-08-25T00:46:08;21.20;99.90
23283;DHT22;11810;51.178;3.878;2022-08-25T00:48:34;21.20;99.90
23283;DHT22;11810;51.178;3.878;2022-08-25T00:51:01;21.20;99.90
23283;DHT22;11810;51.178;3.878;2022-08-25T00:53:29;21.20;99.90
23283;DHT22;11810;51.178;3.878;2022-08-25T00:55:56;21.10;99.90
23283;DHT22;11810;51.178;3.878;2022-08-25T00:58:25;21.10;99.90
23283;DHT22;11810;51.178;3.878;2022-08-25T01:00:53;21.00;99.90
23283;DHT22;11810;51.178;3.878;2022-08-25T01:03:21;20.90;99.90
23283;DHT22;11810;51.178;3.878;2022-08-25T01:05:48;20.90;99.90
23283;DHT22;11810;51.178;3.878;2022-08-25T01:08:15;20.90;99.90
23283;DHT22;11810;51.178;3.878;2022-08-25T01:10:43;20.90;99.90
23283;DHT22;11810;51.178;3.878;2022-08-25T01:13:25;20.80;99.90
23283;DHT22;11810;51.178;3.878;2022-08-25T01:15:54;20.80;99.90
23283;DHT22;11810;51.178;3.878;2022-08-25T01:18:23;20.70;99.90
23283;DHT22;11810;51.178;3.878;2022-08-25T01:20:57;20.70;99.90
23283;DHT22;11810;51.178;3.878;2022-08-25T01:23:23;20.70;99.90
23283;DHT22;11810;51.178;3.878;2022-08-25T01:26:10;20.60;99.90
23283;DHT22;11810;51.178;3.878;2022-08-25T01:28:36;20.50;99.90
23283;DHT22;11810;51.178;3.878;2022-08-25T01:31:03;20.40;99.90
23283;DHT22;11810;51.178;3.878;2022-08-25T01:33:29;20.40;99.90
23283;DHT22;11810;51.178;3.878;2022-08-25T01:35:55;20.40;99.90
23283;DHT22;11810;51.178;3.878;2022-08-25T01:38:22;20.30;99.90
23283;DHT22;11810;51.178;3.878;2022-08-25T01:40:48;20.30;99.90
23283;DHT22;11810;51.178;3.878;2022-08-25T01:45:42;20.30;99.90
23283;DHT22;11810;51.178;3.878;2022-08-25T01:48:10;20.20;99.90
23283;DHT22;11810;51.178;3.878;2022-08-25T01:50:36;20.20;99.90
23283;DHT22;11810;51.178;3.878;2022-08-25T01:53:18;20.20;99.90
23283;DHT22;11810;51.178;3.878;2022-08-25T01:55:46;20.30;99.90
23283;DHT22;11810;51.178;3.878;2022-08-25T01:58:26;20.10;99.90
23283;DHT22;11810;51.178;3.878;2022-08-25T02:00:54;20.10;99.90
23283;DHT22;11810;51.178;3.878;2022-08-25T02:03:22;19.90;99.90
23283;DHT22;11810;51.178;3.878;2022-08-25T02:05:49;20.00;99.90
23283;DHT22;11810;51.178;3.878;2022-08-25T02:08:15;19.90;99.90
23283;DHT22;11810;51.178;3.878;2022-08-25T02:10:42;19.80;99.90
23283;DHT22;11810;51.178;3.878;2022-08-25T02:13:09;19.80;99.90
23283;DHT22;11810;51.178;3.878;2022-08-25T02:15:43;19.80;99.90
23283;DHT22;11810;51.178;3.878;2022-08-25T02:18:11;19.80;99.90
23283;DHT22;11810;51.178;3.878;2022-08-25T02:20:37;19.70;99.90
23283;DHT22;11810;51.178;3.878;2022-08-25T02:23:04;19.70;99.90
23283;DHT22;11810;51.178;3.878;2022-08-25T02:25:30;19.60;99.90
23283;DHT22;11810;51.178;3.878;2022-08-25T02:27:56;19.60;99.90
23283;DHT22;11810;51.178;3.878;2022-08-25T02:30:23;19.60;99.90
23283;DHT22;11810;51.178;3.878;2022-08-25T02:32:49;19.60;99.90
23283;DHT22;11810;51.178;3.878;2022-08-25T02:35:15;19.50;99.90
23283;DHT22;11810;51.178;3.878;2022-08-25T02:37:41;19.50;99.90
23283;DHT22;11810;51.178;3.878;2022-08-25T02:40:08;19.50;99.90
23283;DHT22;11810;51.178;3.878;2022-08-25T02:42:34;19.40;99.90
23283;DHT22;11810;51.178;3.878;2022-08-25T02:45:00;19.40;99.90
23283;DHT22;11810;51.178;3.878;2022-08-25T02:47:26;19.30;99.90
23283;DHT22;11810;51.178;3.878;2022-08-25T02:49:52;19.30;99.90
23283;DHT22;11810;51.178;3.878;2022-08-25T02:52:18;19.30;99.90
23283;DHT22;11810;51.178;3.878;2022-08-25T02:54:44;19.30;99.90
23283;DHT22;11810;51.178;3.878;2022-08-25T02:57:10;19.30;99.90
23283;DHT22;11810;51.178;3.878;2022-08-25T02:59:37;19.20;99.90
23283;DHT22;11810;51.178;3.878;2022-08-25T03:02:04;19.30;99.90
23283;DHT22;11810;51.178;3.878;2022-08-25T03:04:30;19.30;99.90
23283;DHT22;11810;51.178;3.878;2022-08-25T03:06:57;19.30;99.90
23283;DHT22;11810;51.178;3.878;2022-08-25T03:09:25;19.40;99.90
23283;DHT22;11810;51.178;3.878;2022-08-25T03:11:51;19.40;99.90
23283;DHT22;11810;51.178;3.878;2022-08-25T03:14:17;19.30;99.90
23283;DHT22;11810;51.178;3.878;2022-08-25T03:16:43;19.30;99.90
23283;DHT22;11810;51.178;3.878;2022-08-25T03:19:10;19.20;99.90
23283;DHT22;11810;51.178;3.878;2022-08-25T03:21:36;19.10;99.90
23283;DHT22;11810;51.178;3.878;2022-08-25T03:24:04;19.10;99.90
23283;DHT22;11810;51.178;3.878;2022-08-25T03:26:30;19.00;99.90
23283;DHT22;11810;51.178;3.878;2022-08-25T03:29:15;19.00;99.90
23283;DHT22;11810;51.178;3.878;2022-08-25T03:31:43;18.90;99.90
23283;DHT22;11810;51.178;3.878;2022-08-25T03:34:11;18.90;99.90
23283;DHT22;11810;51.178;3.878;2022-08-25T03:36:37;18.80;99.90
23283;DHT22;11810;51.178;3.878;2022-08-25T03:39:04;18.80;99.90
23283;DHT22;11810;51.178;3.878;2022-08-25T03:41:32;18.80;99.90
23283;DHT22;11810;51.178;3.878;2022-08-25T03:44:00;18.80;99.90
23283;DHT22;11810;51.178;3.878;2022-08-25T03:46:32;18.70;99.90
23283;DHT22;11810;51.178;3.878;2022-08-25T03:49:01;18.70;99.90
23283;DHT22;11810;51.178;3.878;2022-08-25T03:51:41;18.70;99.90
23283;DHT22;11810;51.178;3.878;2022-08-25T03:54:08;18.60;99.90
23283;DHT22;11810;51.178;3.878;2022-08-25T03:56:35;18.60;99.90
23283;DHT22;11810;51.178;3.878;2022-08-25T03:59:02;18.60;99.90
23283;DHT22;11810;51.178;3.878;2022-08-25T04:01:28;18.60;99.90
23283;DHT22;11810;51.178;3.878;2022-08-25T04:03:54;18.70;99.90
23283;DHT22;11810;51.178;3.878;2022-08-25T04:06:21;18.70;99.90
23283;DHT22;11810;51.178;3.878;2022-08-25T04:08:48;18.60;99.90
23283;DHT22;11810;51.178;3.878;2022-08-25T04:11:19;18.60;99.90
23283;DHT22;11810;51.178;3.878;2022-08-25T04:13:46;18.60;99.90
23283;DHT22;11810;51.178;3.878;2022-08-25T04:16:15;18.60;99.90
23283;DHT22;11810;51.178;3.878;2022-08-25T04:18:41;18.60;99.90
23283;DHT22;11810;51.178;3.878;2022-08-25T04:21:09;18.50;99.90
23283;DHT22;11810;51.178;3.878;2022-08-25T04:23:37;18.50;99.90
23283;DHT22;11810;51.178;3.878;2022-08-25T04:26:11;18.40;99.90
23283;DHT22;11810;51.178;3.878;2022-08-25T04:28:38;18.40;99.90
23283;DHT22;11810;51.178;3.878;2022-08-25T04:31:09;18.40;99.90
23283;DHT22;11810;51.178;3.878;2022-08-25T04:33:36;18.40;99.90
23283;DHT22;11810;51.178;3.878;2022-08-25T04:36:04;18.40;99.90
23283;DHT22;11810;51.178;3.878;2022-08-25T04:38:31;18.30;99.90
23283;DHT22;11810;51.178;3.878;2022-08-25T04:41:03;18.30;99.90
23283;DHT22;11810;51.178;3.878;2022-08-25T04:43:30;18.30;99.90
23283;DHT22;11810;51.178;3.878;2022-08-25T04:45:57;18.30;99.90
23283;DHT22;11810;51.178;3.878;2022-08-25T04:48:24;18.20;99.90
23283;DHT22;11810;51.178;3.878;2022-08-25T04:50:50;18.20;99.90
23283;DHT22;11810;51.178;3.878;2022-08-25T04:53:16;18.20;99.90
23283;DHT22;11810;51.178;3.878;2022-08-25T04:55:45;18.20;99.90
23283;DHT22;11810;51.178;3.878;2022-08-25T04:58:12;18.30;99.90
23283;DHT22;11810;51.178;3.878;2022-08-25T05:00:39;18.30;99.90
23283;DHT22;11810;51.178;3.878;2022-08-25T05:03:07;18.40;99.90
23283;DHT22;11810;51.178;3.878;2022-08-25T05:05:36;18.40;99.90
23283;DHT22;11810;51.178;3.878;2022-08-25T05:08:03;18.40;99.90
23283;DHT22;11810;51.178;3.878;2022-08-25T05:10:31;18.50;99.90
23283;DHT22;11810;51.178;3.878;2022-08-25T05:12:56;18.70;99.90
23283;DHT22;11810;51.178;3.878;2022-08-25T05:15:24;18.80;99.90
23283;DHT22;11810;51.178;3.878;2022-08-25T05:18:08;18.90;99.90
23283;DHT22;11810;51.178;3.878;2022-08-25T05:20:37;19.00;99.90
23283;DHT22;11810;51.178;3.878;2022-08-25T05:23:04;19.10;99.90
23283;DHT22;11810;51.178;3.878;2022-08-25T05:25:31;19.30;99.90
23283;DHT22;11810;51.178;3.878;2022-08-25T05:27:57;19.50;99.90
23283;DHT22;11810;51.178;3.878;2022-08-25T05:30:23;19.80;99.90
23283;DHT22;11810;51.178;3.878;2022-08-25T05:32:49;20.00;99.90
23283;DHT22;11810;51.178;3.878;2022-08-25T05:35:15;20.30;99.90
23283;DHT22;11810;51.178;3.878;2022-08-25T05:37:41;20.50;99.90
23283;DHT22;11810;51.178;3.878;2022-08-25T05:40:08;20.80;99.90
23283;DHT22;11810;51.178;3.878;2022-08-25T05:42:34;21.20;99.90
23283;DHT22;11810;51.178;3.878;2022-08-25T05:45:03;21.60;99.90
23283;DHT22;11810;51.178;3.878;2022-08-25T05:47:29;21.80;99.90
23283;DHT22;11810;51.178;3.878;2022-08-25T05:49:55;22.00;99.90
23283;DHT22;11810;51.178;3.878;2022-08-25T05:52:21;22.10;99.90
23283;DHT22;11810;51.178;3.878;2022-08-25T05:54:47;22.00;99.90
23283;DHT22;11810;51.178;3.878;2022-08-25T05:57:13;22.30;99.90
23283;DHT22;11810;51.178;3.878;2022-08-25T05:59:39;22.70;99.90
23283;DHT22;11810;51.178;3.878;2022-08-25T06:02:05;23.10;99.90
23283;DHT22;11810;51.178;3.878;2022-08-25T06:04:49;23.70;99.90
23283;DHT22;11810;51.178;3.878;2022-08-25T06:07:16;23.80;99.90
23283;DHT22;11810;51.178;3.878;2022-08-25T06:09:41;24.20;99.90
23283;DHT22;11810;51.178;3.878;2022-08-25T06:12:10;24.50;99.90
23283;DHT22;11810;51.178;3.878;2022-08-25T06:14:37;24.50;99.90
23283;DHT22;11810;51.178;3.878;2022-08-25T06:17:03;24.50;99.90
23283;DHT22;11810;51.178;3.878;2022-08-25T06:19:29;24.90;99.90
23283;DHT22;11810;51.178;3.878;2022-08-25T06:21:56;25.20;99.90
23283;DHT22;11810;51.178;3.878;2022-08-25T06:24:24;26.10;99.90
23283;DHT22;11810;51.178;3.878;2022-08-25T06:26:51;26.50;99.90
23283;DHT22;11810;51.178;3.878;2022-08-25T06:29:17;27.10;99.90
23283;DHT22;11810;51.178;3.878;2022-08-25T06:31:44;27.10;99.90
23283;DHT22;11810;51.178;3.878;2022-08-25T06:34:11;27.40;99.90
23283;DHT22;11810;51.178;3.878;2022-08-25T06:36:39;27.60;99.90
23283;DHT22;11810;51.178;3.878;2022-08-25T06:39:05;27.80;99.90
23283;DHT22;11810;51.178;3.878;2022-08-25T06:41:31;27.80;99.90
23283;DHT22;11810;51.178;3.878;2022-08-25T06:43:57;27.70;99.90
23283;DHT22;11810;51.178;3.878;2022-08-25T06:46:25;27.90;99.90
23283;DHT22;11810;51.178;3.878;2022-08-25T06:48:53;28.20;99.90
23283;DHT22;11810;51.178;3.878;2022-08-25T06:51:20;28.10;99.90
23283;DHT22;11810;51.178;3.878;2022-08-25T06:53:48;27.60;99.90
23283;DHT22;11810;51.178;3.878;2022-08-25T06:56:16;27.00;99.90
23283;DHT22;11810;51.178;3.878;2022-08-25T06:58:42;26.50;99.90
23283;DHT22;11810;51.178;3.878;2022-08-25T07:01:18;26.00;99.90
23283;DHT22;11810;51.178;3.878;2022-08-25T07:03:47;25.80;99.90
23283;DHT22;11810;51.178;3.878;2022-08-25T07:06:13;25.60;99.90
23283;DHT22;11810;51.178;3.878;2022-08-25T07:08:39;25.70;99.90
23283;DHT22;11810;51.178;3.878;2022-08-25T07:11:10;25.40;99.90
23283;DHT22;11810;51.178;3.878;2022-08-25T07:13:37;25.30;99.90
23283;DHT22;11810;51.178;3.878;2022-08-25T07:16:04;25.40;99.90
23283;DHT22;11810;51.178;3.878;2022-08-25T07:18:30;25.70;99.90
23283;DHT22;11810;51.178;3.878;2022-08-25T07:20:58;25.90;99.90
23283;DHT22;11810;51.178;3.878;2022-08-25T07:23:24;25.90;99.90
23283;DHT22;11810;51.178;3.878;2022-08-25T07:25:51;26.20;99.90
23283;DHT22;11810;51.178;3.878;2022-08-25T07:28:19;26.50;99.90
23283;DHT22;11810;51.178;3.878;2022-08-25T07:30:46;27.20;99.90
23283;DHT22;11810;51.178;3.878;2022-08-25T07:33:12;27.80;99.90
23283;DHT22;11810;51.178;3.878;2022-08-25T07:35:38;28.50;99.90
23283;DHT22;11810;51.178;3.878;2022-08-25T07:38:05;28.90;99.90
23283;DHT22;11810;51.178;3.878;2022-08-25T07:40:34;29.70;99.90
23283;DHT22;11810;51.178;3.878;2022-08-25T07:43:03;30.10;99.90
23283;DHT22;11810;51.178;3.878;2022-08-25T07:45:31;30.70;99.90
23283;DHT22;11810;51.178;3.878;2022-08-25T07:48:01;31.30;99.90
23283;DHT22;11810;51.178;3.878;2022-08-25T07:50:28;32.10;99.90
23283;DHT22;11810;51.178;3.878;2022-08-25T07:52:55;32.60;99.90
23283;DHT22;11810;51.178;3.878;2022-08-25T07:55:23;32.70;99.90
23283;DHT22;11810;51.178;3.878;2022-08-25T07:57:53;32.60;99.90
23283;DHT22;11810;51.178;3.878;2022-08-25T08:00:19;32.40;99.90
23283;DHT22;11810;51.178;3.878;2022-08-25T08:02:45;33.00;99.90
23283;DHT22;11810;51.178;3.878;2022-08-25T08:05:12;33.40;99.90
23283;DHT22;11810;51.178;3.878;2022-08-25T08:07:39;33.90;99.90
23283;DHT22;11810;51.178;3.878;2022-08-25T08:10:07;34.80;99.90
23283;DHT22;11810;51.178;3.878;2022-08-25T08:12:34;35.10;99.90
23283;DHT22;11810;51.178;3.878;2022-08-25T08:15:00;35.10;99.90
23283;DHT22;11810;51.178;3.878;2022-08-25T08:17:27;35.00;99.90
23283;DHT22;11810;51.178;3.878;2022-08-25T08:19:53;35.50;99.90
23283;DHT22;11810;51.178;3.878;2022-08-25T08:22:19;35.20;99.90
23283;DHT22;11810;51.178;3.878;2022-08-25T08:24:45;35.50;99.90
23283;DHT22;11810;51.178;3.878;2022-08-25T08:27:12;35.40;99.90
23283;DHT22;11810;51.178;3.878;2022-08-25T08:29:40;35.90;99.90
23283;DHT22;11810;51.178;3.878;2022-08-25T08:32:09;36.50;99.90
23283;DHT22;11810;51.178;3.878;2022-08-25T08:34:38;36.50;99.90
23283;DHT22;11810;51.178;3.878;2022-08-25T08:37:06;36.90;99.90
23283;DHT22;11810;51.178;3.878;2022-08-25T08:39:32;37.20;99.90
23283;DHT22;11810;51.178;3.878;2022-08-25T08:47:25;37.50;99.90
23283;DHT22;11810;51.178;3.878;2022-08-25T08:55:38;38.60;99.70
23283;DHT22;11810;51.178;3.878;2022-08-25T08:58:16;39.00;99.60
23283;DHT22;11810;51.178;3.878;2022-08-25T09:00:49;39.40;98.80
23283;DHT22;11810;51.178;3.878;2022-08-25T09:06:49;40.30;95.60
23283;DHT22;11810;51.178;3.878;2022-08-25T09:08:58;40.60;94.80
23283;DHT22;11810;51.178;3.878;2022-08-25T09:14:44;40.50;94.00
23283;DHT22;11810;51.178;3.878;2022-08-25T09:17:26;40.70;92.60
23283;DHT22;11810;51.178;3.878;2022-08-25T09:25:17;41.20;91.70
23283;DHT22;11810;51.178;3.878;2022-08-25T09:33:23;41.70;89.70
23283;DHT22;11810;51.178;3.878;2022-08-25T09:35:52;41.50;89.90
23283;DHT22;11810;51.178;3.878;2022-08-25T09:38:19;41.20;88.70
23283;DHT22;11810;51.178;3.878;2022-08-25T09:40:50;41.50;86.30
23283;DHT22;11810;51.178;3.878;2022-08-25T09:43:23;41.70;85.50
23283;DHT22;11810;51.178;3.878;2022-08-25T09:46:22;41.80;85.70
23283;DHT22;11810;51.178;3.878;2022-08-25T09:48:57;42.20;84.60
23283;DHT22;11810;51.178;3.878;2022-08-25T09:51:38;42.40;84.90
23283;DHT22;11810;51.178;3.878;2022-08-25T09:56:55;43.00;80.00
23283;DHT22;11810;51.178;3.878;2022-08-25T09:59:30;43.40;80.30
23283;DHT22;11810;51.178;3.878;2022-08-25T10:02:01;44.80;78.60
23283;DHT22;11810;51.178;3.878;2022-08-25T10:04:33;44.00;76.10
23283;DHT22;11810;51.178;3.878;2022-08-25T10:07:03;42.70;72.40
23283;DHT22;11810;51.178;3.878;2022-08-25T10:09:37;41.80;75.70
23283;DHT22;11810;51.178;3.878;2022-08-25T10:12:20;40.30;76.60
23283;DHT22;11810;51.178;3.878;2022-08-25T10:14:49;39.20;78.90
23283;DHT22;11810;51.178;3.878;2022-08-25T10:17:16;39.50;78.00
23283;DHT22;11810;51.178;3.878;2022-08-25T10:19:54;40.00;75.20
23283;DHT22;11810;51.178;3.878;2022-08-25T10:22:24;40.00;78.00
23283;DHT22;11810;51.178;3.878;2022-08-25T10:25:00;40.80;74.80
23283;DHT22;11810;51.178;3.878;2022-08-25T10:30:21;41.90;73.40
23283;DHT22;11810;51.178;3.878;2022-08-25T10:32:58;41.50;72.20
23283;DHT22;11810;51.178;3.878;2022-08-25T10:38:44;41.10;75.70
23283;DHT22;11810;51.178;3.878;2022-08-25T10:41:29;41.90;75.10
23283;DHT22;11810;51.178;3.878;2022-08-25T10:47:41;41.60;73.90
23283;DHT22;11810;51.178;3.878;2022-08-25T10:50:35;40.50;75.40
23283;DHT22;11810;51.178;3.878;2022-08-25T10:56:15;41.40;72.30
23283;DHT22;11810;51.178;3.878;2022-08-25T11:06:59;41.50;66.10
23283;DHT22;11810;51.178;3.878;2022-08-25T11:09:35;41.10;65.00
23283;DHT22;11810;51.178;3.878;2022-08-25T11:12:19;40.10;66.70
23283;DHT22;11810;51.178;3.878;2022-08-25T11:14:53;39.50;65.90
23283;DHT22;11810;51.178;3.878;2022-08-25T11:17:25;39.00;67.10
23283;DHT22;11810;51.178;3.878;2022-08-25T11:19:59;38.80;67.70
23283;DHT22;11810;51.178;3.878;2022-08-25T11:22:50;38.60;66.30
23283;DHT22;11810;51.178;3.878;2022-08-25T11:25:30;38.00;67.60
23283;DHT22;11810;51.178;3.878;2022-08-25T11:28:25;37.50;67.50
23283;DHT22;11810;51.178;3.878;2022-08-25T11:30:57;38.00;68.90
23283;DHT22;11810;51.178;3.878;2022-08-25T11:33:24;38.30;69.90
23283;DHT22;11810;51.178;3.878;2022-08-25T11:50:07;37.50;79.10
23283;DHT22;11810;51.178;3.878;2022-08-25T11:52:47;37.10;81.80
23283;DHT22;11810;51.178;3.878;2022-08-25T11:57:48;35.40;90.00
23283;DHT22;11810;51.178;3.878;2022-08-25T12:00:38;35.20;90.40
23283;DHT22;11810;51.178;3.878;2022-08-25T12:11:55;36.40;92.10
23283;DHT22;11810;51.178;3.878;2022-08-25T12:19:50;35.70;93.50
23283;DHT22;11810;51.178;3.878;2022-08-25T12:29:54;36.80;94.40
23283;DHT22;11810;51.178;3.878;2022-08-25T12:32:36;36.50;93.60
23283;DHT22;11810;51.178;3.878;2022-08-25T12:37:53;36.90;93.70
23283;DHT22;11810;51.178;3.878;2022-08-25T12:51:59;35.30;96.00
23283;DHT22;11810;51.178;3.878;2022-08-25T12:54:50;35.30;96.70
23283;DHT22;11810;51.178;3.878;2022-08-25T13:11:10;37.80;94.50
23283;DHT22;11810;51.178;3.878;2022-08-25T13:14:13;38.40;93.80
23283;DHT22;11810;51.178;3.878;2022-08-25T13:16:52;38.10;93.90
23283;DHT22;11810;51.178;3.878;2022-08-25T13:19:19;37.80;93.80
23283;DHT22;11810;51.178;3.878;2022-08-25T13:21:46;37.70;93.40
23283;DHT22;11810;51.178;3.878;2022-08-25T13:24:34;37.40;93.40
23283;DHT22;11810;51.178;3.878;2022-08-25T13:27:04;37.30;93.40
23283;DHT22;11810;51.178;3.878;2022-08-25T13:29:33;37.50;93.60
23283;DHT22;11810;51.178;3.878;2022-08-25T13:32:02;37.40;94.00
23283;DHT22;11810;51.178;3.878;2022-08-25T13:34:31;37.50;93.80
23283;DHT22;11810;51.178;3.878;2022-08-25T13:37:05;36.30;94.80
23283;DHT22;11810;51.178;3.878;2022-08-25T13:39:49;36.00;95.30
23283;DHT22;11810;51.178;3.878;2022-08-25T13:42:16;35.60;96.70
23283;DHT22;11810;51.178;3.878;2022-08-25T13:44:42;35.30;97.00
23283;DHT22;11810;51.178;3.878;2022-08-25T13:47:23;35.00;97.30
23283;DHT22;11810;51.178;3.878;2022-08-25T13:53:21;35.00;99.30
23283;DHT22;11810;51.178;3.878;2022-08-25T13:58:29;34.30;99.90
23283;DHT22;11810;51.178;3.878;2022-08-25T14:03:44;34.10;99.90
23283;DHT22;11810;51.178;3.878;2022-08-25T14:08:43;33.90;99.90
23283;DHT22;11810;51.178;3.878;2022-08-25T14:11:39;33.80;99.90
23283;DHT22;11810;51.178;3.878;2022-08-25T14:14:05;33.30;99.90
23283;DHT22;11810;51.178;3.878;2022-08-25T14:16:58;33.00;99.90
23283;DHT22;11810;51.178;3.878;2022-08-25T14:19:25;33.30;99.90
23283;DHT22;11810;51.178;3.878;2022-08-25T14:21:51;33.10;99.90
23283;DHT22;11810;51.178;3.878;2022-08-25T14:24:20;33.20;99.90
23283;DHT22;11810;51.178;3.878;2022-08-25T14:26:49;33.10;99.90
23283;DHT22;11810;51.178;3.878;2022-08-25T14:29:15;33.10;99.90
23283;DHT22;11810;51.178;3.878;2022-08-25T14:31:43;32.50;99.90
23283;DHT22;11810;51.178;3.878;2022-08-25T14:34:22;32.50;99.90
23283;DHT22;11810;51.178;3.878;2022-08-25T14:36:50;32.40;99.90
23283;DHT22;11810;51.178;3.878;2022-08-25T14:39:16;32.40;99.90
23283;DHT22;11810;51.178;3.878;2022-08-25T14:41:42;32.20;99.90
23283;DHT22;11810;51.178;3.878;2022-08-25T14:44:11;31.90;99.90
23283;DHT22;11810;51.178;3.878;2022-08-25T14:46:41;31.70;99.90
23283;DHT22;11810;51.178;3.878;2022-08-25T14:49:11;31.50;99.90
23283;DHT22;11810;51.178;3.878;2022-08-25T14:51:39;31.30;99.90
23283;DHT22;11810;51.178;3.878;2022-08-25T14:54:10;31.30;99.90
23283;DHT22;11810;51.178;3.878;2022-08-25T14:56:38;31.20;99.90
23283;DHT22;11810;51.178;3.878;2022-08-25T14:59:04;31.30;99.90
23283;DHT22;11810;51.178;3.878;2022-08-25T15:01:30;30.90;99.90
23283;DHT22;11810;51.178;3.878;2022-08-25T15:04:01;30.60;99.90
23283;DHT22;11810;51.178;3.878;2022-08-25T15:06:28;30.50;99.90
23283;DHT22;11810;51.178;3.878;2022-08-25T15:08:54;30.20;99.90
23283;DHT22;11810;51.178;3.878;2022-08-25T15:11:43;30.10;99.90
23283;DHT22;11810;51.178;3.878;2022-08-25T15:14:11;29.70;99.90
23283;DHT22;11810;51.178;3.878;2022-08-25T15:16:43;29.50;99.90
23283;DHT22;11810;51.178;3.878;2022-08-25T15:19:12;29.10;99.90
23283;DHT22;11810;51.178;3.878;2022-08-25T15:21:42;28.80;99.90
23283;DHT22;11810;51.178;3.878;2022-08-25T15:24:09;28.60;99.90
23283;DHT22;11810;51.178;3.878;2022-08-25T15:29:12;28.50;99.90
23283;DHT22;11810;51.178;3.878;2022-08-25T15:31:38;28.60;99.90
23283;DHT22;11810;51.178;3.878;2022-08-25T15:34:06;28.60;99.90
23283;DHT22;11810;51.178;3.878;2022-08-25T15:36:32;28.70;99.90
23283;DHT22;11810;51.178;3.878;2022-08-25T15:38:58;29.10;99.90
23283;DHT22;11810;51.178;3.878;2022-08-25T15:41:24;29.40;99.90
23283;DHT22;11810;51.178;3.878;2022-08-25T15:43:50;29.40;99.90
23283;DHT22;11810;51.178;3.878;2022-08-25T15:46:18;29.60;99.90
23283;DHT22;11810;51.178;3.878;2022-08-25T15:48:45;29.40;99.90
23283;DHT22;11810;51.178;3.878;2022-08-25T15:51:12;29.50;99.90
23283;DHT22;11810;51.178;3.878;2022-08-25T15:53:39;29.40;99.90
23283;DHT22;11810;51.178;3.878;2022-08-25T15:56:05;29.00;99.90
23283;DHT22;11810;51.178;3.878;2022-08-25T15:58:33;28.90;99.90
23283;DHT22;11810;51.178;3.878;2022-08-25T16:01:00;28.90;99.90
23283;DHT22;11810;51.178;3.878;2022-08-25T16:03:26;29.20;99.90
23283;DHT22;11810;51.178;3.878;2022-08-25T16:05:52;29.30;99.90
23283;DHT22;11810;51.178;3.878;2022-08-25T16:08:18;29.10;99.90
23283;DHT22;11810;51.178;3.878;2022-08-25T16:10:45;28.90;99.90
23283;DHT22;11810;51.178;3.878;2022-08-25T16:13:11;29.30;99.90
23283;DHT22;11810;51.178;3.878;2022-08-25T16:15:37;29.10;99.90
23283;DHT22;11810;51.178;3.878;2022-08-25T16:18:04;28.70;99.90
23283;DHT22;11810;51.178;3.878;2022-08-25T16:20:32;28.60;99.90
23283;DHT22;11810;51.178;3.878;2022-08-25T16:22:58;28.50;99.90
23283;DHT22;11810;51.178;3.878;2022-08-25T16:25:27;28.70;99.90
23283;DHT22;11810;51.178;3.878;2022-08-25T16:27:53;28.50;99.90
23283;DHT22;11810;51.178;3.878;2022-08-25T16:30:19;28.40;99.90
23283;DHT22;11810;51.178;3.878;2022-08-25T16:32:45;28.20;99.90
23283;DHT22;11810;51.178;3.878;2022-08-25T16:35:12;28.00;99.90
23283;DHT22;11810;51.178;3.878;2022-08-25T16:37:38;27.90;99.90
23283;DHT22;11810;51.178;3.878;2022-08-25T16:40:05;27.50;99.90
23283;DHT22;11810;51.178;3.878;2022-08-25T16:42:32;27.40;99.90
23283;DHT22;11810;51.178;3.878;2022-08-25T16:44:58;27.40;99.90
23283;DHT22;11810;51.178;3.878;2022-08-25T16:47:24;27.20;99.90
23283;DHT22;11810;51.178;3.878;2022-08-25T16:49:50;27.10;99.90
23283;DHT22;11810;51.178;3.878;2022-08-25T16:52:16;27.10;99.90
23283;DHT22;11810;51.178;3.878;2022-08-25T16:55:01;26.80;99.90
23283;DHT22;11810;51.178;3.878;2022-08-25T16:57:41;26.60;99.90
23283;DHT22;11810;51.178;3.878;2022-08-25T17:00:10;26.70;99.90
23283;DHT22;11810;51.178;3.878;2022-08-25T17:02:38;26.60;99.90
23283;DHT22;11810;51.178;3.878;2022-08-25T17:05:06;26.50;99.90
23283;DHT22;11810;51.178;3.878;2022-08-25T17:07:33;26.60;99.90
23283;DHT22;11810;51.178;3.878;2022-08-25T17:09:59;26.50;99.90
23283;DHT22;11810;51.178;3.878;2022-08-25T17:12:26;26.40;99.90
23283;DHT22;11810;51.178;3.878;2022-08-25T17:14:52;26.20;99.90
23283;DHT22;11810;51.178;3.878;2022-08-25T17:17:19;26.10;99.90
23283;DHT22;11810;51.178;3.878;2022-08-25T17:19:45;26.10;99.90
23283;DHT22;11810;51.178;3.878;2022-08-25T17:22:11;26.10;99.90
23283;DHT22;11810;51.178;3.878;2022-08-25T17:24:41;26.10;99.90
23283;DHT22;11810;51.178;3.878;2022-08-25T17:27:07;26.00;99.90
23283;DHT22;11810;51.178;3.878;2022-08-25T17:29:34;25.90;99.90
23283;DHT22;11810;51.178;3.878;2022-08-25T17:32:01;25.80;99.90
23283;DHT22;11810;51.178;3.878;2022-08-25T17:34:28;25.70;99.90
23283;DHT22;11810;51.178;3.878;2022-08-25T17:36:54;25.60;99.90
23283;DHT22;11810;51.178;3.878;2022-08-25T17:39:21;25.50;99.90
23283;DHT22;11810;51.178;3.878;2022-08-25T17:41:47;25.50;99.90
23283;DHT22;11810;51.178;3.878;2022-08-25T17:44:14;25.30;99.90
23283;DHT22;11810;51.178;3.878;2022-08-25T17:46:40;25.10;99.90
23283;DHT22;11810;51.178;3.878;2022-08-25T17:49:07;25.00;99.90
23283;DHT22;11810;51.178;3.878;2022-08-25T17:51:33;24.70;99.90
23283;DHT22;11810;51.178;3.878;2022-08-25T17:54:00;24.70;99.90
23283;DHT22;11810;51.178;3.878;2022-08-25T17:56:26;24.60;99.90
23283;DHT22;11810;51.178;3.878;2022-08-25T17:58:54;24.60;99.90
23283;DHT22;11810;51.178;3.878;2022-08-25T18:01:29;24.50;99.90